sensor_id;sensor_type;location;lat;lon;timestamp;pressure;altitude;pressure_sealevel;temperature;humidity
76766;BME280;65707;52.362;6.588;2023-06-22T00:01:02;101961.78;;;19.58;73.60
76766;BME280;65707;52.362;6.588;2023-06-22T00:03:38;101969.09;;;19.51;73.74
76766;BME280;65707;52.362;6.588;2023-06-22T00:06:05;101964.16;;;19.33;74.55
76766;BME280;65707;52.362;6.588;2023-06-22T00:08:34;101967.69;;;19.34;74.61
76766;BME280;65707;52.362;6.588;2023-06-22T00:11:00;101965.56;;;19.29;74.97
76766;BME280;65707;52.362;6.588;2023-06-22T00:13:27;101959.94;;;19.31;75.08
76766;BME280;65707;52.362;6.588;2023-06-22T00:15:54;101961.19;;;19.28;74.95
76766;BME280;65707;52.362;6.588;2023-06-22T00:18:23;101950.28;;;19.28;75.05
76766;BME280;65707;52.362;6.588;2023-06-22T00:20:54;101959.66;;;19.26;75.33
76766;BME280;65707;52.362;6.588;2023-06-22T00:23:23;101954.59;;;19.23;75.36
76766;BME280;65707;52.362;6.588;2023-06-22T00:25:50;101951.19;;;19.14;75.78
76766;BME280;65707;52.362;6.588;2023-06-22T00:28:16;101950.75;;;19.11;75.99
76766;BME280;65707;52.362;6.588;2023-06-22T00:30:43;101958.03;;;19.04;76.40
76766;BME280;65707;52.362;6.588;2023-06-22T00:33:10;101955.88;;;18.99;76.71
76766;BME280;65707;52.362;6.588;2023-06-22T00:35:41;101949.16;;;18.95;77.01
76766;BME280;65707;52.362;6.588;2023-06-22T00:38:15;101947.91;;;18.98;76.90
76766;BME280;65707;52.362;6.588;2023-06-22T00:40:41;101939.13;;;18.96;76.78
76766;BME280;65707;52.362;6.588;2023-06-22T00:43:09;101929.44;;;18.93;76.91
76766;BME280;65707;52.362;6.588;2023-06-22T00:45:38;101929.03;;;18.90;77.05
76766;BME280;65707;52.362;6.588;2023-06-22T00:48:06;101933.88;;;18.94;76.74
76766;BME280;65707;52.362;6.588;2023-06-22T00:50:33;101919.09;;;18.82;77.15
76766;BME280;65707;52.362;6.588;2023-06-22T00:53:04;101924.13;;;18.79;77.44
76766;BME280;65707;52.362;6.588;2023-06-22T00:55:35;101925.25;;;18.70;77.87
76766;BME280;65707;52.362;6.588;2023-06-22T00:58:04;101919.06;;;18.76;77.75
76766;BME280;65707;52.362;6.588;2023-06-22T01:00:35;101911.03;;;18.68;78.06
76766;BME280;65707;52.362;6.588;2023-06-22T01:03:02;101907.66;;;18.66;78.26
76766;BME280;65707;52.362;6.588;2023-06-22T01:05:31;101914.50;;;18.62;78.54
76766;BME280;65707;52.362;6.588;2023-06-22T01:08:08;101928.56;;;18.65;78.32
76766;BME280;65707;52.362;6.588;2023-06-22T01:10:44;101922.03;;;18.60;78.63
76766;BME280;65707;52.362;6.588;2023-06-22T01:13:18;101922.03;;;18.60;78.57
76766;BME280;65707;52.362;6.588;2023-06-22T01:15:51;101911.56;;;18.57;78.91
76766;BME280;65707;52.362;6.588;2023-06-22T01:18:20;101930.31;;;18.52;79.32
76766;BME280;65707;52.362;6.588;2023-06-22T01:20:54;101927.72;;;18.43;79.40
76766;BME280;65707;52.362;6.588;2023-06-22T01:23:32;101939.69;;;18.49;79.60
76766;BME280;65707;52.362;6.588;2023-06-22T01:26:12;101935.41;;;18.40;80.54
76766;BME280;65707;52.362;6.588;2023-06-22T01:28:45;101936.63;;;18.37;80.66
76766;BME280;65707;52.362;6.588;2023-06-22T01:31:15;101939.84;;;18.41;80.39
76766;BME280;65707;52.362;6.588;2023-06-22T01:33:44;101933.91;;;18.37;80.35
76766;BME280;65707;52.362;6.588;2023-06-22T01:36:13;101940.28;;;18.44;80.50
76766;BME280;65707;52.362;6.588;2023-06-22T01:38:41;101937.75;;;18.43;80.00
76766;BME280;65707;52.362;6.588;2023-06-22T01:41:10;101933.06;;;18.37;80.40
76766;BME280;65707;52.362;6.588;2023-06-22T01:43:40;101941.13;;;18.30;80.86
76766;BME280;65707;52.362;6.588;2023-06-22T01:46:11;101933.63;;;18.32;80.81
76766;BME280;65707;52.362;6.588;2023-06-22T01:48:39;101931.41;;;18.21;81.32
76766;BME280;65707;52.362;6.588;2023-06-22T01:51:06;101930.31;;;18.16;81.88
76766;BME280;65707;52.362;6.588;2023-06-22T01:53:33;101933.19;;;18.14;82.08
76766;BME280;65707;52.362;6.588;2023-06-22T01:56:02;101935.91;;;18.14;82.17
76766;BME280;65707;52.362;6.588;2023-06-22T01:58:29;101927.97;;;18.13;81.96
76766;BME280;65707;52.362;6.588;2023-06-22T02:01:03;101927.06;;;18.06;82.54
76766;BME280;65707;52.362;6.588;2023-06-22T02:03:40;101929.41;;;18.09;82.46
76766;BME280;65707;52.362;6.588;2023-06-22T02:06:14;101943.56;;;18.04;82.69
76766;BME280;65707;52.362;6.588;2023-06-22T02:08:47;101919.00;;;17.98;83.11
76766;BME280;65707;52.362;6.588;2023-06-22T02:11:17;101927.81;;;18.00;83.61
76766;BME280;65707;52.362;6.588;2023-06-22T02:13:45;101920.78;;;18.05;83.49
76766;BME280;65707;52.362;6.588;2023-06-22T02:16:13;101926.59;;;18.02;83.55
76766;BME280;65707;52.362;6.588;2023-06-22T02:18:47;101918.16;;;17.97;83.86
76766;BME280;65707;52.362;6.588;2023-06-22T02:21:16;101922.69;;;17.90;84.10
76766;BME280;65707;52.362;6.588;2023-06-22T02:23:43;101923.34;;;17.92;84.91
76766;BME280;65707;52.362;6.588;2023-06-22T02:26:16;101917.72;;;17.94;84.74
76766;BME280;65707;52.362;6.588;2023-06-22T02:28:43;101905.72;;;17.88;84.68
76766;BME280;65707;52.362;6.588;2023-06-22T02:31:13;101911.06;;;17.96;84.58
76766;BME280;65707;52.362;6.588;2023-06-22T02:33:40;101915.44;;;17.97;85.06
76766;BME280;65707;52.362;6.588;2023-06-22T02:36:08;101921.72;;;17.98;85.25
76766;BME280;65707;52.362;6.588;2023-06-22T02:38:38;101925.31;;;17.98;85.56
76766;BME280;65707;52.362;6.588;2023-06-22T02:41:05;101929.50;;;18.01;85.37
76766;BME280;65707;52.362;6.588;2023-06-22T02:43:31;101914.06;;;18.01;84.98
76766;BME280;65707;52.362;6.588;2023-06-22T02:45:58;101924.53;;;18.04;85.26
76766;BME280;65707;52.362;6.588;2023-06-22T02:48:27;101920.31;;;18.02;85.09
76766;BME280;65707;52.362;6.588;2023-06-22T02:50:58;101923.22;;;18.00;84.97
76766;BME280;65707;52.362;6.588;2023-06-22T02:53:26;101919.00;;;17.98;85.75
76766;BME280;65707;52.362;6.588;2023-06-22T02:55:55;101918.81;;;17.99;85.10
76766;BME280;65707;52.362;6.588;2023-06-22T02:58:22;101913.78;;;17.96;85.51
76766;BME280;65707;52.362;6.588;2023-06-22T03:00:54;101917.63;;;17.87;85.41
76766;BME280;65707;52.362;6.588;2023-06-22T03:03:20;101918.94;;;17.91;85.86
76766;BME280;65707;52.362;6.588;2023-06-22T03:05:47;101925.97;;;17.86;86.54
76766;BME280;65707;52.362;6.588;2023-06-22T03:08:16;101924.19;;;17.78;87.21
76766;BME280;65707;52.362;6.588;2023-06-22T03:10:44;101924.09;;;17.86;86.95
76766;BME280;65707;52.362;6.588;2023-06-22T03:13:11;101927.66;;;17.87;86.56
76766;BME280;65707;52.362;6.588;2023-06-22T03:15:40;101928.13;;;17.90;86.01
76766;BME280;65707;52.362;6.588;2023-06-22T03:18:07;101925.41;;;17.90;86.42
76766;BME280;65707;52.362;6.588;2023-06-22T03:20:33;101926.81;;;17.86;86.88
76766;BME280;65707;52.362;6.588;2023-06-22T03:23:00;101918.22;;;17.83;87.33
76766;BME280;65707;52.362;6.588;2023-06-22T03:25:27;101930.19;;;17.88;87.39
76766;BME280;65707;52.362;6.588;2023-06-22T03:27:55;101923.91;;;17.88;87.37
76766;BME280;65707;52.362;6.588;2023-06-22T03:30:24;101919.31;;;17.88;87.42
76766;BME280;65707;52.362;6.588;2023-06-22T03:32:53;101924.75;;;17.88;87.54
76766;BME280;65707;52.362;6.588;2023-06-22T03:35:19;101917.63;;;17.87;87.87
76766;BME280;65707;52.362;6.588;2023-06-22T03:37:46;101913.69;;;17.90;87.95
76766;BME280;65707;52.362;6.588;2023-06-22T03:40:13;101916.50;;;17.96;87.63
76766;BME280;65707;52.362;6.588;2023-06-22T03:42:40;101911.81;;;17.90;88.00
76766;BME280;65707;52.362;6.588;2023-06-22T03:45:11;101912.09;;;17.95;88.17
76766;BME280;65707;52.362;6.588;2023-06-22T03:47:40;101919.00;;;17.98;87.58
76766;BME280;65707;52.362;6.588;2023-06-22T03:50:07;101920.34;;;17.87;88.14
76766;BME280;65707;52.362;6.588;2023-06-22T03:52:37;101912.81;;;18.04;87.90
76766;BME280;65707;52.362;6.588;2023-06-22T03:55:04;101915.06;;;18.00;87.34
76766;BME280;65707;52.362;6.588;2023-06-22T03:57:33;101911.81;;;18.05;87.45
76766;BME280;65707;52.362;6.588;2023-06-22T03:59:59;101902.81;;;18.04;87.22
76766;BME280;65707;52.362;6.588;2023-06-22T04:02:27;101884.38;;;18.00;87.17
76766;BME280;65707;52.362;6.588;2023-06-22T04:04:54;101890.06;;;18.05;86.99
76766;BME280;65707;52.362;6.588;2023-06-22T04:07:21;101895.81;;;17.95;87.34
76766;BME280;65707;52.362;6.588;2023-06-22T04:09:47;101894.88;;;17.88;88.38
76766;BME280;65707;52.362;6.588;2023-06-22T04:12:14;101893.34;;;18.00;87.44
76766;BME280;65707;52.362;6.588;2023-06-22T04:14:41;101891.66;;;17.99;87.48
76766;BME280;65707;52.362;6.588;2023-06-22T04:17:07;101898.97;;;17.99;87.14
76766;BME280;65707;52.362;6.588;2023-06-22T04:19:35;101902.06;;;17.96;87.59
76766;BME280;65707;52.362;6.588;2023-06-22T04:22:05;101913.78;;;17.96;87.53
76766;BME280;65707;52.362;6.588;2023-06-22T04:24:32;101911.63;;;17.92;88.00
76766;BME280;65707;52.362;6.588;2023-06-22T04:27:06;101907.09;;;17.99;87.27
76766;BME280;65707;52.362;6.588;2023-06-22T04:29:36;101891.47;;;18.01;87.25
76766;BME280;65707;52.362;6.588;2023-06-22T04:32:14;101913.38;;;17.99;87.17
76766;BME280;65707;52.362;6.588;2023-06-22T04:34:41;101906.00;;;17.93;87.40
76766;BME280;65707;52.362;6.588;2023-06-22T04:37:09;101909.94;;;17.91;87.67
76766;BME280;65707;52.362;6.588;2023-06-22T04:39:40;101906.66;;;17.95;87.67
76766;BME280;65707;52.362;6.588;2023-06-22T04:42:10;101903.00;;;18.03;87.13
76766;BME280;65707;52.362;6.588;2023-06-22T04:44:38;101897.66;;;18.09;86.85
76766;BME280;65707;52.362;6.588;2023-06-22T04:47:07;101886.78;;;18.09;86.56
76766;BME280;65707;52.362;6.588;2023-06-22T04:49:37;101899.97;;;18.12;86.92
76766;BME280;65707;52.362;6.588;2023-06-22T04:52:08;101890.66;;;18.21;86.24
76766;BME280;65707;52.362;6.588;2023-06-22T04:54:36;101890.41;;;18.16;86.40
76766;BME280;65707;52.362;6.588;2023-06-22T04:57:05;101892.03;;;18.32;86.07
76766;BME280;65707;52.362;6.588;2023-06-22T04:59:37;101894.84;;;18.38;85.72
76766;BME280;65707;52.362;6.588;2023-06-22T05:02:12;101885.38;;;18.56;84.86
76766;BME280;65707;52.362;6.588;2023-06-22T05:04:40;101884.59;;;18.62;83.89
76766;BME280;65707;52.362;6.588;2023-06-22T05:07:08;101877.63;;;18.74;83.69
76766;BME280;65707;52.362;6.588;2023-06-22T05:09:35;101877.22;;;18.77;83.28
76766;BME280;65707;52.362;6.588;2023-06-22T05:12:02;101882.78;;;18.90;82.98
76766;BME280;65707;52.362;6.588;2023-06-22T05:14:30;101880.53;;;19.00;82.38
76766;BME280;65707;52.362;6.588;2023-06-22T05:16:57;101872.78;;;18.97;81.96
76766;BME280;65707;52.362;6.588;2023-06-22T05:19:29;101877.28;;;19.11;81.72
76766;BME280;65707;52.362;6.588;2023-06-22T05:22:01;101882.56;;;19.19;80.99
76766;BME280;65707;52.362;6.588;2023-06-22T05:24:29;101884.47;;;19.25;80.58
76766;BME280;65707;52.362;6.588;2023-06-22T05:26:55;101887.00;;;19.26;80.30
76766;BME280;65707;52.362;6.588;2023-06-22T05:29:22;101886.44;;;19.31;79.80
76766;BME280;65707;52.362;6.588;2023-06-22T05:31:49;101882.72;;;19.38;79.73
76766;BME280;65707;52.362;6.588;2023-06-22T05:34:17;101877.53;;;19.50;79.42
76766;BME280;65707;52.362;6.588;2023-06-22T05:36:46;101884.91;;;19.56;78.66
76766;BME280;65707;52.362;6.588;2023-06-22T05:39:15;101884.72;;;19.64;78.29
76766;BME280;65707;52.362;6.588;2023-06-22T05:41:46;101876.84;;;19.75;77.85
76766;BME280;65707;52.362;6.588;2023-06-22T05:44:15;101872.66;;;19.79;77.28
76766;BME280;65707;52.362;6.588;2023-06-22T05:46:44;101879.00;;;19.93;76.96
76766;BME280;65707;52.362;6.588;2023-06-22T05:49:14;101870.25;;;20.11;76.30
76766;BME280;65707;52.362;6.588;2023-06-22T05:51:41;101877.66;;;20.23;75.57
76766;BME280;65707;52.362;6.588;2023-06-22T05:54:08;101878.28;;;20.32;75.09
76766;BME280;65707;52.362;6.588;2023-06-22T05:56:35;101882.31;;;20.36;74.87
76766;BME280;65707;52.362;6.588;2023-06-22T05:59:03;101860.69;;;20.28;73.75
76766;BME280;65707;52.362;6.588;2023-06-22T06:01:30;101882.28;;;20.29;73.61
76766;BME280;65707;52.362;6.588;2023-06-22T06:04:01;101875.59;;;20.38;73.95
76766;BME280;65707;52.362;6.588;2023-06-22T06:06:27;101889.88;;;20.40;74.25
76766;BME280;65707;52.362;6.588;2023-06-22T06:08:56;101890.09;;;20.58;73.92
76766;BME280;65707;52.362;6.588;2023-06-22T06:11:24;101901.22;;;20.70;73.21
76766;BME280;65707;52.362;6.588;2023-06-22T06:13:54;101891.13;;;20.77;71.97
76766;BME280;65707;52.362;6.588;2023-06-22T06:16:22;101885.91;;;20.88;71.08
76766;BME280;65707;52.362;6.588;2023-06-22T06:18:51;101886.97;;;20.94;71.08
76766;BME280;65707;52.362;6.588;2023-06-22T06:21:20;101885.31;;;20.99;70.49
76766;BME280;65707;52.362;6.588;2023-06-22T06:23:48;101883.59;;;21.11;70.11
76766;BME280;65707;52.362;6.588;2023-06-22T06:26:15;101878.78;;;21.20;69.77
76766;BME280;65707;52.362;6.588;2023-06-22T06:28:42;101880.44;;;21.27;69.09
76766;BME280;65707;52.362;6.588;2023-06-22T06:31:09;101883.56;;;21.37;68.37
76766;BME280;65707;52.362;6.588;2023-06-22T06:33:38;101884.59;;;21.43;68.18
76766;BME280;65707;52.362;6.588;2023-06-22T06:36:09;101876.13;;;21.64;67.37
76766;BME280;65707;52.362;6.588;2023-06-22T06:38:41;101873.81;;;21.68;67.54
76766;BME280;65707;52.362;6.588;2023-06-22T06:41:09;101863.28;;;21.78;66.16
76766;BME280;65707;52.362;6.588;2023-06-22T06:43:38;101860.72;;;21.89;65.43
76766;BME280;65707;52.362;6.588;2023-06-22T06:46:05;101852.25;;;21.97;65.13
76766;BME280;65707;52.362;6.588;2023-06-22T06:48:31;101860.44;;;22.04;65.48
76766;BME280;65707;52.362;6.588;2023-06-22T06:50:59;101858.25;;;22.12;64.38
76766;BME280;65707;52.362;6.588;2023-06-22T06:53:26;101856.75;;;22.23;64.06
76766;BME280;65707;52.362;6.588;2023-06-22T06:55:59;101861.47;;;22.34;63.40
76766;BME280;65707;52.362;6.588;2023-06-22T06:58:25;101850.53;;;22.34;62.74
76766;BME280;65707;52.362;6.588;2023-06-22T07:00:52;101846.06;;;22.46;62.72
76766;BME280;65707;52.362;6.588;2023-06-22T07:03:19;101856.16;;;22.45;62.81
76766;BME280;65707;52.362;6.588;2023-06-22T07:05:45;101851.47;;;22.59;62.16
76766;BME280;65707;52.362;6.588;2023-06-22T07:08:16;101854.41;;;22.57;62.27
76766;BME280;65707;52.362;6.588;2023-06-22T07:10:42;101851.78;;;22.69;61.65
76766;BME280;65707;52.362;6.588;2023-06-22T07:13:14;101841.28;;;22.90;60.20
76766;BME280;65707;52.362;6.588;2023-06-22T07:15:40;101839.16;;;22.92;60.04
76766;BME280;65707;52.362;6.588;2023-06-22T07:18:07;101833.00;;;22.97;59.75
76766;BME280;65707;52.362;6.588;2023-06-22T07:20:34;101833.38;;;23.01;59.09
76766;BME280;65707;52.362;6.588;2023-06-22T07:23:00;101834.06;;;22.96;59.76
76766;BME280;65707;52.362;6.588;2023-06-22T07:25:28;101826.19;;;23.06;59.31
76766;BME280;65707;52.362;6.588;2023-06-22T07:28:00;101814.03;;;23.20;59.12
76766;BME280;65707;52.362;6.588;2023-06-22T07:30:27;101809.59;;;23.19;58.72
76766;BME280;65707;52.362;6.588;2023-06-22T07:32:54;101811.88;;;23.22;59.67
76766;BME280;65707;52.362;6.588;2023-06-22T07:35:21;101809.41;;;23.39;58.64
76766;BME280;65707;52.362;6.588;2023-06-22T07:37:50;101800.78;;;23.53;58.73
76766;BME280;65707;52.362;6.588;2023-06-22T07:40:17;101800.34;;;23.56;58.32
76766;BME280;65707;52.362;6.588;2023-06-22T07:42:45;101804.44;;;23.65;58.52
76766;BME280;65707;52.362;6.588;2023-06-22T07:45:13;101799.59;;;23.79;58.63
76766;BME280;65707;52.362;6.588;2023-06-22T07:47:43;101801.66;;;23.83;57.99
76766;BME280;65707;52.362;6.588;2023-06-22T07:52:36;101800.28;;;24.22;57.89
76766;BME280;65707;52.362;6.588;2023-06-22T07:55:03;101801.16;;;24.46;57.17
76766;BME280;65707;52.362;6.588;2023-06-22T07:57:31;101796.88;;;24.50;57.50
76766;BME280;65707;52.362;6.588;2023-06-22T08:00:00;101791.66;;;24.83;56.05
76766;BME280;65707;52.362;6.588;2023-06-22T08:02:29;101791.44;;;24.96;54.84
76766;BME280;65707;52.362;6.588;2023-06-22T08:04:56;101786.75;;;24.96;55.59
76766;BME280;65707;52.362;6.588;2023-06-22T08:07:25;101769.41;;;25.19;54.10
76766;BME280;65707;52.362;6.588;2023-06-22T08:09:52;101775.38;;;25.39;53.64
76766;BME280;65707;52.362;6.588;2023-06-22T08:12:22;101775.84;;;25.36;53.46
76766;BME280;65707;52.362;6.588;2023-06-22T08:14:48;101782.41;;;25.46;53.87
76766;BME280;65707;52.362;6.588;2023-06-22T08:17:16;101777.25;;;25.50;53.37
76766;BME280;65707;52.362;6.588;2023-06-22T08:19:45;101770.38;;;25.64;52.71
76766;BME280;65707;52.362;6.588;2023-06-22T08:22:15;101771.50;;;25.79;53.29
76766;BME280;65707;52.362;6.588;2023-06-22T08:24:42;101765.13;;;25.90;53.41
76766;BME280;65707;52.362;6.588;2023-06-22T08:27:09;101751.63;;;26.17;52.52
76766;BME280;65707;52.362;6.588;2023-06-22T08:29:37;101761.78;;;26.33;51.86
76766;BME280;65707;52.362;6.588;2023-06-22T08:32:04;101757.47;;;26.37;51.61
76766;BME280;65707;52.362;6.588;2023-06-22T08:34:33;101764.81;;;26.48;52.59
76766;BME280;65707;52.362;6.588;2023-06-22T08:37:02;101752.09;;;26.80;50.56
76766;BME280;65707;52.362;6.588;2023-06-22T08:39:31;101755.63;;;27.14;50.13
76766;BME280;65707;52.362;6.588;2023-06-22T08:41:58;101748.53;;;27.40;49.05
76766;BME280;65707;52.362;6.588;2023-06-22T08:44:25;101725.94;;;27.64;48.78
76766;BME280;65707;52.362;6.588;2023-06-22T08:46:51;101720.00;;;27.51;48.71
76766;BME280;65707;52.362;6.588;2023-06-22T08:49:18;101715.28;;;27.51;48.40
76766;BME280;65707;52.362;6.588;2023-06-22T08:51:48;101703.97;;;27.74;47.80
76766;BME280;65707;52.362;6.588;2023-06-22T08:54:17;101700.63;;;27.99;47.58
76766;BME280;65707;52.362;6.588;2023-06-22T08:56:45;101698.78;;;28.09;47.02
76766;BME280;65707;52.362;6.588;2023-06-22T08:59:12;101686.28;;;28.70;45.53
76766;BME280;65707;52.362;6.588;2023-06-22T09:01:39;101683.94;;;28.94;46.11
76766;BME280;65707;52.362;6.588;2023-06-22T09:04:06;101676.97;;;28.81;45.00
76766;BME280;65707;52.362;6.588;2023-06-22T09:06:34;101664.25;;;28.85;44.27
76766;BME280;65707;52.362;6.588;2023-06-22T09:09:07;101654.63;;;28.98;43.90
76766;BME280;65707;52.362;6.588;2023-06-22T09:11:34;101648.00;;;28.99;44.53
76766;BME280;65707;52.362;6.588;2023-06-22T09:14:05;101653.16;;;29.47;43.86
76766;BME280;65707;52.362;6.588;2023-06-22T09:16:32;101652.97;;;29.73;42.85
76766;BME280;65707;52.362;6.588;2023-06-22T09:18:59;101651.88;;;29.89;43.29
76766;BME280;65707;52.362;6.588;2023-06-22T09:21:25;101638.28;;;30.08;42.23
76766;BME280;65707;52.362;6.588;2023-06-22T09:23:52;101634.16;;;30.26;41.79
76766;BME280;65707;52.362;6.588;2023-06-22T09:26:20;101640.22;;;30.12;42.46
76766;BME280;65707;52.362;6.588;2023-06-22T09:28:47;101642.31;;;30.81;40.91
76766;BME280;65707;52.362;6.588;2023-06-22T09:31:16;101630.84;;;31.07;40.20
76766;BME280;65707;52.362;6.588;2023-06-22T09:33:46;101640.06;;;30.93;41.21
76766;BME280;65707;52.362;6.588;2023-06-22T09:36:16;101631.97;;;31.01;40.68
76766;BME280;65707;52.362;6.588;2023-06-22T09:38:45;101644.91;;;31.31;39.11
76766;BME280;65707;52.362;6.588;2023-06-22T09:41:14;101636.22;;;31.37;39.48
76766;BME280;65707;52.362;6.588;2023-06-22T09:43:42;101643.13;;;31.45;38.29
76766;BME280;65707;52.362;6.588;2023-06-22T09:46:10;101646.84;;;31.30;39.30
76766;BME280;65707;52.362;6.588;2023-06-22T09:48:38;101636.16;;;30.99;39.27
76766;BME280;65707;52.362;6.588;2023-06-22T09:51:06;101644.25;;;30.85;39.84
76766;BME280;65707;52.362;6.588;2023-06-22T09:53:32;101646.69;;;30.97;38.81
76766;BME280;65707;52.362;6.588;2023-06-22T09:56:03;101641.78;;;30.79;39.70
76766;BME280;65707;52.362;6.588;2023-06-22T09:58:31;101652.94;;;30.13;41.06
76766;BME280;65707;52.362;6.588;2023-06-22T10:00:59;101649.88;;;30.10;41.32
76766;BME280;65707;52.362;6.588;2023-06-22T10:03:28;101637.44;;;29.97;40.83
76766;BME280;65707;52.362;6.588;2023-06-22T10:05:55;101639.69;;;29.95;42.28
76766;BME280;65707;52.362;6.588;2023-06-22T10:08:22;101640.78;;;30.30;42.12
76766;BME280;65707;52.362;6.588;2023-06-22T10:10:48;101642.69;;;30.39;40.92
76766;BME280;65707;52.362;6.588;2023-06-22T10:13:15;101632.47;;;30.09;41.18
76766;BME280;65707;52.362;6.588;2023-06-22T10:15:44;101648.53;;;29.67;42.52
76766;BME280;65707;52.362;6.588;2023-06-22T10:18:19;101636.00;;;29.60;42.22
76766;BME280;65707;52.362;6.588;2023-06-22T10:20:50;101636.81;;;29.35;42.97
76766;BME280;65707;52.362;6.588;2023-06-22T10:23:17;101652.03;;;29.33;43.70
76766;BME280;65707;52.362;6.588;2023-06-22T10:25:44;101658.38;;;29.28;43.70
76766;BME280;65707;52.362;6.588;2023-06-22T10:28:14;101651.69;;;29.19;43.49
76766;BME280;65707;52.362;6.588;2023-06-22T10:30:41;101649.09;;;28.98;43.60
76766;BME280;65707;52.362;6.588;2023-06-22T10:33:08;101639.16;;;29.02;43.19
76766;BME280;65707;52.362;6.588;2023-06-22T10:35:36;101654.84;;;28.86;44.34
76766;BME280;65707;52.362;6.588;2023-06-22T10:38:04;101646.56;;;28.81;43.21
76766;BME280;65707;52.362;6.588;2023-06-22T10:40:31;101657.13;;;28.47;43.37
76766;BME280;65707;52.362;6.588;2023-06-22T10:42:58;101661.94;;;28.25;43.65
76766;BME280;65707;52.362;6.588;2023-06-22T10:45:25;101647.44;;;28.45;43.78
76766;BME280;65707;52.362;6.588;2023-06-22T10:47:52;101647.00;;;28.26;43.94
76766;BME280;65707;52.362;6.588;2023-06-22T10:50:19;101663.31;;;28.23;44.44
76766;BME280;65707;52.362;6.588;2023-06-22T10:52:47;101660.41;;;28.08;44.84
76766;BME280;65707;52.362;6.588;2023-06-22T10:55:14;101668.81;;;28.23;45.02
76766;BME280;65707;52.362;6.588;2023-06-22T10:57:41;101654.19;;;27.91;44.13
76766;BME280;65707;52.362;6.588;2023-06-22T11:00:10;101653.31;;;27.85;45.47
76766;BME280;65707;52.362;6.588;2023-06-22T11:02:37;101657.28;;;27.68;45.95
76766;BME280;65707;52.362;6.588;2023-06-22T11:05:04;101651.19;;;27.66;46.81
76766;BME280;65707;52.362;6.588;2023-06-22T11:07:31;101649.81;;;27.95;45.23
76766;BME280;65707;52.362;6.588;2023-06-22T11:09:59;101645.78;;;27.81;45.67
76766;BME280;65707;52.362;6.588;2023-06-22T11:12:26;101656.25;;;28.05;45.34
76766;BME280;65707;52.362;6.588;2023-06-22T11:14:52;101646.16;;;28.21;45.19
76766;BME280;65707;52.362;6.588;2023-06-22T11:17:19;101651.63;;;28.16;44.79
76766;BME280;65707;52.362;6.588;2023-06-22T11:19:46;101646.34;;;28.09;45.64
76766;BME280;65707;52.362;6.588;2023-06-22T11:22:13;101645.44;;;28.35;46.03
76766;BME280;65707;52.362;6.588;2023-06-22T11:24:39;101636.88;;;28.37;45.77
76766;BME280;65707;52.362;6.588;2023-06-22T11:27:10;101626.13;;;28.35;45.73
76766;BME280;65707;52.362;6.588;2023-06-22T11:29:38;101627.53;;;28.43;44.61
76766;BME280;65707;52.362;6.588;2023-06-22T11:32:08;101622.94;;;28.58;45.10
76766;BME280;65707;52.362;6.588;2023-06-22T11:34:34;101618.84;;;28.66;44.38
76766;BME280;65707;52.362;6.588;2023-06-22T11:37:01;101613.44;;;28.96;43.52
76766;BME280;65707;52.362;6.588;2023-06-22T11:39:28;101607.59;;;28.83;43.62
76766;BME280;65707;52.362;6.588;2023-06-22T11:41:54;101596.38;;;29.09;43.59
76766;BME280;65707;52.362;6.588;2023-06-22T11:44:22;101590.31;;;29.12;43.08
76766;BME280;65707;52.362;6.588;2023-06-22T11:46:49;101587.44;;;28.97;43.66
76766;BME280;65707;52.362;6.588;2023-06-22T11:49:17;101584.13;;;29.00;43.45
76766;BME280;65707;52.362;6.588;2023-06-22T11:51:44;101584.16;;;29.05;43.69
76766;BME280;65707;52.362;6.588;2023-06-22T11:54:13;101578.31;;;28.92;43.93
76766;BME280;65707;52.362;6.588;2023-06-22T11:56:39;101581.25;;;28.60;43.81
76766;BME280;65707;52.362;6.588;2023-06-22T11:59:06;101587.44;;;28.40;45.29
76766;BME280;65707;52.362;6.588;2023-06-22T12:01:33;101582.16;;;28.29;44.41
76766;BME280;65707;52.362;6.588;2023-06-22T12:04:00;101572.91;;;28.08;45.02
76766;BME280;65707;52.362;6.588;2023-06-22T12:06:30;101574.88;;;27.81;45.28
76766;BME280;65707;52.362;6.588;2023-06-22T12:09:03;101574.00;;;27.71;45.85
76766;BME280;65707;52.362;6.588;2023-06-22T12:11:33;101567.19;;;27.52;45.08
76766;BME280;65707;52.362;6.588;2023-06-22T12:13:59;101576.31;;;27.25;46.97
76766;BME280;65707;52.362;6.588;2023-06-22T12:16:29;101581.13;;;27.13;48.28
76766;BME280;65707;52.362;6.588;2023-06-22T12:18:57;101587.59;;;27.24;47.28
76766;BME280;65707;52.362;6.588;2023-06-22T12:21:23;101570.69;;;27.15;47.14
76766;BME280;65707;52.362;6.588;2023-06-22T12:23:50;101581.97;;;27.14;47.69
76766;BME280;65707;52.362;6.588;2023-06-22T12:26:22;101588.19;;;27.04;48.00
76766;BME280;65707;52.362;6.588;2023-06-22T12:28:48;101592.34;;;27.07;48.47
76766;BME280;65707;52.362;6.588;2023-06-22T12:31:17;101580.41;;;26.96;47.10
76766;BME280;65707;52.362;6.588;2023-06-22T12:33:43;101585.78;;;26.86;47.08
76766;BME280;65707;52.362;6.588;2023-06-22T12:36:14;101582.25;;;26.69;47.59
76766;BME280;65707;52.362;6.588;2023-06-22T12:38:41;101583.88;;;26.49;48.70
76766;BME280;65707;52.362;6.588;2023-06-22T12:41:08;101586.38;;;26.50;49.14
76766;BME280;65707;52.362;6.588;2023-06-22T12:43:37;101586.53;;;26.60;49.33
76766;BME280;65707;52.362;6.588;2023-06-22T12:46:04;101594.44;;;26.35;50.11
76766;BME280;65707;52.362;6.588;2023-06-22T12:48:30;101609.81;;;26.31;51.02
76766;BME280;65707;52.362;6.588;2023-06-22T12:50:57;101605.47;;;26.35;50.35
76766;BME280;65707;52.362;6.588;2023-06-22T12:53:25;101607.72;;;26.38;51.04
76766;BME280;65707;52.362;6.588;2023-06-22T12:55:52;101605.53;;;26.40;50.43
76766;BME280;65707;52.362;6.588;2023-06-22T12:58:19;101615.50;;;26.25;52.42